sensor_id;sensor_type;location;lat;lon;timestamp;temperature;humidity
28614;DHT22;15806;53.548;9.964;2023-05-10T00:01:28;14.40;99.90
28614;DHT22;15806;53.548;9.964;2023-05-10T00:03:08;14.40;99.90
28614;DHT22;15806;53.548;9.964;2023-05-10T00:04:49;14.30;99.90
28614;DHT22;15806;53.548;9.964;2023-05-10T00:06:32;14.30;99.90
28614;DHT22;15806;53.548;9.964;2023-05-10T00:08:13;14.30;99.90
28614;DHT22;15806;53.548;9.964;2023-05-10T00:09:54;14.20;99.90
28614;DHT22;15806;53.548;9.964;2023-05-10T00:11:43;14.30;99.90
28614;DHT22;15806;53.548;9.964;2023-05-10T00:13:24;14.20;99.90
28614;DHT22;15806;53.548;9.964;2023-05-10T00:15:05;14.20;99.90
28614;DHT22;15806;53.548;9.964;2023-05-10T00:16:46;14.20;99.90
28614;DHT22;15806;53.548;9.964;2023-05-10T00:18:26;14.20;99.90
28614;DHT22;15806;53.548;9.964;2023-05-10T00:20:07;14.20;99.90
28614;DHT22;15806;53.548;9.964;2023-05-10T00:21:48;14.10;99.90
28614;DHT22;15806;53.548;9.964;2023-05-10T00:23:28;14.10;99.90
28614;DHT22;15806;53.548;9.964;2023-05-10T00:25:09;14.10;99.90
28614;DHT22;15806;53.548;9.964;2023-05-10T00:26:49;14.10;99.90
28614;DHT22;15806;53.548;9.964;2023-05-10T00:28:30;14.10;99.90
28614;DHT22;15806;53.548;9.964;2023-05-10T00:30:11;14.10;99.90
28614;DHT22;15806;53.548;9.964;2023-05-10T00:31:51;14.10;99.90
28614;DHT22;15806;53.548;9.964;2023-05-10T00:33:32;14.10;99.90
28614;DHT22;15806;53.548;9.964;2023-05-10T00:35:12;14.10;99.90
28614;DHT22;15806;53.548;9.964;2023-05-10T00:36:52;14.00;99.90
28614;DHT22;15806;53.548;9.964;2023-05-10T00:38:33;14.00;99.90
28614;DHT22;15806;53.548;9.964;2023-05-10T00:40:14;13.90;99.90
28614;DHT22;15806;53.548;9.964;2023-05-10T00:41:54;13.90;99.90
28614;DHT22;15806;53.548;9.964;2023-05-10T00:43:35;13.90;99.90
28614;DHT22;15806;53.548;9.964;2023-05-10T00:45:15;13.90;99.90
28614;DHT22;15806;53.548;9.964;2023-05-10T00:46:56;13.90;99.90
28614;DHT22;15806;53.548;9.964;2023-05-10T00:48:37;13.90;99.90
28614;DHT22;15806;53.548;9.964;2023-05-10T00:50:18;13.90;99.90
28614;DHT22;15806;53.548;9.964;2023-05-10T00:51:58;13.90;99.90
28614;DHT22;15806;53.548;9.964;2023-05-10T00:53:40;13.90;99.90
28614;DHT22;15806;53.548;9.964;2023-05-10T00:55:21;13.80;99.90
28614;DHT22;15806;53.548;9.964;2023-05-10T00:57:02;13.80;99.90
28614;DHT22;15806;53.548;9.964;2023-05-10T00:58:42;13.80;99.90
28614;DHT22;15806;53.548;9.964;2023-05-10T01:00:23;13.80;99.90
28614;DHT22;15806;53.548;9.964;2023-05-10T01:02:03;13.80;99.90
28614;DHT22;15806;53.548;9.964;2023-05-10T01:03:44;13.70;99.90
28614;DHT22;15806;53.548;9.964;2023-05-10T01:05:25;13.70;99.90
28614;DHT22;15806;53.548;9.964;2023-05-10T01:07:06;13.70;99.90
28614;DHT22;15806;53.548;9.964;2023-05-10T01:08:46;13.60;99.90
28614;DHT22;15806;53.548;9.964;2023-05-10T01:10:27;13.60;99.90
28614;DHT22;15806;53.548;9.964;2023-05-10T01:12:08;13.60;99.90
28614;DHT22;15806;53.548;9.964;2023-05-10T01:13:55;13.60;99.90
28614;DHT22;15806;53.548;9.964;2023-05-10T01:15:36;13.60;99.90
28614;DHT22;15806;53.548;9.964;2023-05-10T01:17:18;13.60;99.90
28614;DHT22;15806;53.548;9.964;2023-05-10T01:18:59;13.50;99.90
28614;DHT22;15806;53.548;9.964;2023-05-10T01:20:43;13.50;99.90
28614;DHT22;15806;53.548;9.964;2023-05-10T01:37:31;13.30;99.90
28614;DHT22;15806;53.548;9.964;2023-05-10T01:39:47;13.30;99.90
28614;DHT22;15806;53.548;9.964;2023-05-10T01:41:54;13.30;99.90
28614;DHT22;15806;53.548;9.964;2023-05-10T01:43:52;13.20;99.90
28614;DHT22;15806;53.548;9.964;2023-05-10T01:45:49;13.20;99.90
28614;DHT22;15806;53.548;9.964;2023-05-10T01:47:38;13.20;99.90
28614;DHT22;15806;53.548;9.964;2023-05-10T01:49:25;13.20;99.90
28614;DHT22;15806;53.548;9.964;2023-05-10T01:51:06;13.20;99.90
28614;DHT22;15806;53.548;9.964;2023-05-10T01:52:53;13.20;99.90
28614;DHT22;15806;53.548;9.964;2023-05-10T01:54:35;13.10;99.90
28614;DHT22;15806;53.548;9.964;2023-05-10T01:56:20;13.10;99.90
28614;DHT22;15806;53.548;9.964;2023-05-10T01:58:09;13.10;99.90
28614;DHT22;15806;53.548;9.964;2023-05-10T01:59:51;13.10;99.90
28614;DHT22;15806;53.548;9.964;2023-05-10T02:01:33;13.10;99.90
28614;DHT22;15806;53.548;9.964;2023-05-10T02:03:14;13.00;99.90
28614;DHT22;15806;53.548;9.964;2023-05-10T02:04:56;13.00;99.90
28614;DHT22;15806;53.548;9.964;2023-05-10T02:06:38;13.00;99.90
28614;DHT22;15806;53.548;9.964;2023-05-10T02:08:21;13.00;99.90
28614;DHT22;15806;53.548;9.964;2023-05-10T02:10:04;13.00;99.90
28614;DHT22;15806;53.548;9.964;2023-05-10T02:11:48;13.00;99.90
28614;DHT22;15806;53.548;9.964;2023-05-10T02:13:29;13.00;99.90
28614;DHT22;15806;53.548;9.964;2023-05-10T02:15:14;13.00;99.90
28614;DHT22;15806;53.548;9.964;2023-05-10T02:16:55;12.90;99.90
28614;DHT22;15806;53.548;9.964;2023-05-10T02:18:37;12.90;99.90
28614;DHT22;15806;53.548;9.964;2023-05-10T02:20:18;12.90;99.90
28614;DHT22;15806;53.548;9.964;2023-05-10T02:21:59;12.90;99.90
28614;DHT22;15806;53.548;9.964;2023-05-10T02:23:40;12.90;1.00
28614;DHT22;15806;53.548;9.964;2023-05-10T02:25:23;12.90;1.00
28614;DHT22;15806;53.548;9.964;2023-05-10T02:27:04;12.80;1.00
28614;DHT22;15806;53.548;9.964;2023-05-10T02:28:47;12.80;1.00
28614;DHT22;15806;53.548;9.964;2023-05-10T02:30:29;12.80;1.00
28614;DHT22;15806;53.548;9.964;2023-05-10T02:32:15;12.80;1.00
28614;DHT22;15806;53.548;9.964;2023-05-10T02:33:59;12.80;1.00
28614;DHT22;15806;53.548;9.964;2023-05-10T02:37:56;12.80;1.00
28614;DHT22;15806;53.548;9.964;2023-05-10T02:39:58;12.70;1.00
28614;DHT22;15806;53.548;9.964;2023-05-10T02:41:40;12.80;1.00
28614;DHT22;15806;53.548;9.964;2023-05-10T02:43:27;12.70;1.00
28614;DHT22;15806;53.548;9.964;2023-05-10T02:45:21;12.70;1.00
28614;DHT22;15806;53.548;9.964;2023-05-10T02:47:03;12.70;1.00
28614;DHT22;15806;53.548;9.964;2023-05-10T02:48:44;12.70;1.00
28614;DHT22;15806;53.548;9.964;2023-05-10T02:50:27;12.70;1.00
28614;DHT22;15806;53.548;9.964;2023-05-10T02:52:10;12.70;1.00
28614;DHT22;15806;53.548;9.964;2023-05-10T02:53:53;12.70;1.00
28614;DHT22;15806;53.548;9.964;2023-05-10T02:55:38;12.60;1.00
28614;DHT22;15806;53.548;9.964;2023-05-10T02:57:27;12.70;1.00
28614;DHT22;15806;53.548;9.964;2023-05-10T02:59:08;12.60;1.00
28614;DHT22;15806;53.548;9.964;2023-05-10T03:00:49;12.60;1.00
28614;DHT22;15806;53.548;9.964;2023-05-10T03:02:30;12.60;1.00
28614;DHT22;15806;53.548;9.964;2023-05-10T03:04:10;12.60;1.00
28614;DHT22;15806;53.548;9.964;2023-05-10T03:05:51;12.60;1.00
28614;DHT22;15806;53.548;9.964;2023-05-10T03:07:32;12.60;1.00
28614;DHT22;15806;53.548;9.964;2023-05-10T03:09:13;12.60;1.00
28614;DHT22;15806;53.548;9.964;2023-05-10T03:17:28;12.60;1.00
28614;DHT22;15806;53.548;9.964;2023-05-10T03:19:22;12.70;1.00
28614;DHT22;15806;53.548;9.964;2023-05-10T03:21:06;12.60;1.00
28614;DHT22;15806;53.548;9.964;2023-05-10T03:22:51;12.60;1.00
28614;DHT22;15806;53.548;9.964;2023-05-10T03:24:34;12.60;1.00
28614;DHT22;15806;53.548;9.964;2023-05-10T03:26:25;12.50;1.00
28614;DHT22;15806;53.548;9.964;2023-05-10T03:28:07;12.50;1.00
28614;DHT22;15806;53.548;9.964;2023-05-10T03:29:48;12.50;1.00
28614;DHT22;15806;53.548;9.964;2023-05-10T03:31:29;12.50;1.00
28614;DHT22;15806;53.548;9.964;2023-05-10T03:33:09;12.50;1.00
28614;DHT22;15806;53.548;9.964;2023-05-10T03:34:50;12.50;1.00
28614;DHT22;15806;53.548;9.964;2023-05-10T03:36:30;12.50;1.00
28614;DHT22;15806;53.548;9.964;2023-05-10T03:38:12;12.40;1.00
28614;DHT22;15806;53.548;9.964;2023-05-10T03:39:52;12.50;1.00
28614;DHT22;15806;53.548;9.964;2023-05-10T03:41:33;12.40;1.00
28614;DHT22;15806;53.548;9.964;2023-05-10T03:43:13;12.40;1.00
28614;DHT22;15806;53.548;9.964;2023-05-10T03:44:54;12.40;1.00
28614;DHT22;15806;53.548;9.964;2023-05-10T03:46:34;12.40;1.00
28614;DHT22;15806;53.548;9.964;2023-05-10T03:48:15;12.40;1.00
28614;DHT22;15806;53.548;9.964;2023-05-10T03:49:55;12.40;1.00
28614;DHT22;15806;53.548;9.964;2023-05-10T03:51:36;12.40;1.00
28614;DHT22;15806;53.548;9.964;2023-05-10T03:53:16;12.30;1.00
28614;DHT22;15806;53.548;9.964;2023-05-10T03:54:57;12.40;1.00
28614;DHT22;15806;53.548;9.964;2023-05-10T03:56:37;12.40;1.00
28614;DHT22;15806;53.548;9.964;2023-05-10T03:58:18;12.40;1.00
28614;DHT22;15806;53.548;9.964;2023-05-10T03:59:58;12.40;1.00
28614;DHT22;15806;53.548;9.964;2023-05-10T04:01:39;12.40;1.00
28614;DHT22;15806;53.548;9.964;2023-05-10T04:03:19;12.30;1.00
28614;DHT22;15806;53.548;9.964;2023-05-10T04:05:00;12.30;1.00
28614;DHT22;15806;53.548;9.964;2023-05-10T04:06:40;12.30;1.00
28614;DHT22;15806;53.548;9.964;2023-05-10T04:08:21;12.40;1.00
28614;DHT22;15806;53.548;9.964;2023-05-10T04:10:01;12.40;1.00
28614;DHT22;15806;53.548;9.964;2023-05-10T04:11:42;12.30;1.00
28614;DHT22;15806;53.548;9.964;2023-05-10T04:13:23;12.30;1.00
28614;DHT22;15806;53.548;9.964;2023-05-10T04:15:03;12.30;1.00
28614;DHT22;15806;53.548;9.964;2023-05-10T04:16:44;12.30;1.00
28614;DHT22;15806;53.548;9.964;2023-05-10T04:18:24;12.30;1.00
28614;DHT22;15806;53.548;9.964;2023-05-10T04:20:05;12.30;1.00
28614;DHT22;15806;53.548;9.964;2023-05-10T04:21:46;12.30;1.00
28614;DHT22;15806;53.548;9.964;2023-05-10T04:23:27;12.30;1.00
28614;DHT22;15806;53.548;9.964;2023-05-10T04:25:08;12.30;1.00
28614;DHT22;15806;53.548;9.964;2023-05-10T04:26:49;12.30;1.00
28614;DHT22;15806;53.548;9.964;2023-05-10T04:28:29;12.40;1.00
28614;DHT22;15806;53.548;9.964;2023-05-10T04:30:10;12.40;1.00
28614;DHT22;15806;53.548;9.964;2023-05-10T04:31:50;12.30;1.00
28614;DHT22;15806;53.548;9.964;2023-05-10T04:33:32;12.30;1.00
28614;DHT22;15806;53.548;9.964;2023-05-10T04:35:12;12.30;1.00
28614;DHT22;15806;53.548;9.964;2023-05-10T04:36:53;12.30;1.00
28614;DHT22;15806;53.548;9.964;2023-05-10T04:38:33;12.30;1.00
28614;DHT22;15806;53.548;9.964;2023-05-10T04:40:14;12.30;1.00
28614;DHT22;15806;53.548;9.964;2023-05-10T04:41:54;12.20;1.00
28614;DHT22;15806;53.548;9.964;2023-05-10T04:43:35;12.20;1.00
28614;DHT22;15806;53.548;9.964;2023-05-10T04:45:15;12.30;1.00
28614;DHT22;15806;53.548;9.964;2023-05-10T04:46:56;12.30;1.00
28614;DHT22;15806;53.548;9.964;2023-05-10T04:48:37;12.30;1.00
28614;DHT22;15806;53.548;9.964;2023-05-10T04:50:17;12.30;1.00
28614;DHT22;15806;53.548;9.964;2023-05-10T04:51:58;12.30;1.00
28614;DHT22;15806;53.548;9.964;2023-05-10T04:53:38;12.40;1.00
28614;DHT22;15806;53.548;9.964;2023-05-10T04:55:19;12.30;1.00
28614;DHT22;15806;53.548;9.964;2023-05-10T04:56:59;12.40;1.00
28614;DHT22;15806;53.548;9.964;2023-05-10T04:58:40;12.30;1.00
28614;DHT22;15806;53.548;9.964;2023-05-10T05:00:20;12.30;1.00
28614;DHT22;15806;53.548;9.964;2023-05-10T05:02:01;12.30;1.00
28614;DHT22;15806;53.548;9.964;2023-05-10T05:03:41;12.30;1.00
28614;DHT22;15806;53.548;9.964;2023-05-10T05:05:22;12.30;1.00
28614;DHT22;15806;53.548;9.964;2023-05-10T05:07:02;12.40;1.00
28614;DHT22;15806;53.548;9.964;2023-05-10T05:08:43;12.40;1.00
28614;DHT22;15806;53.548;9.964;2023-05-10T05:10:23;12.40;1.00
28614;DHT22;15806;53.548;9.964;2023-05-10T05:12:04;12.40;1.00
28614;DHT22;15806;53.548;9.964;2023-05-10T05:13:45;12.40;1.00
28614;DHT22;15806;53.548;9.964;2023-05-10T05:15:25;12.40;1.00
28614;DHT22;15806;53.548;9.964;2023-05-10T05:17:06;12.40;1.00
28614;DHT22;15806;53.548;9.964;2023-05-10T05:18:46;12.50;1.00
28614;DHT22;15806;53.548;9.964;2023-05-10T05:20:27;12.60;1.00
28614;DHT22;15806;53.548;9.964;2023-05-10T05:22:08;12.60;1.00
28614;DHT22;15806;53.548;9.964;2023-05-10T05:23:48;12.60;1.00
28614;DHT22;15806;53.548;9.964;2023-05-10T05:25:29;12.50;1.00
28614;DHT22;15806;53.548;9.964;2023-05-10T05:27:09;12.60;1.00
28614;DHT22;15806;53.548;9.964;2023-05-10T05:28:50;12.60;1.00
28614;DHT22;15806;53.548;9.964;2023-05-10T05:30:30;12.60;1.00
28614;DHT22;15806;53.548;9.964;2023-05-10T05:32:11;12.70;1.00
28614;DHT22;15806;53.548;9.964;2023-05-10T05:33:51;12.80;1.00
28614;DHT22;15806;53.548;9.964;2023-05-10T05:35:33;12.70;1.00
28614;DHT22;15806;53.548;9.964;2023-05-10T05:37:18;12.60;1.00
28614;DHT22;15806;53.548;9.964;2023-05-10T05:38:58;12.60;1.00
28614;DHT22;15806;53.548;9.964;2023-05-10T05:40:39;12.60;1.00
28614;DHT22;15806;53.548;9.964;2023-05-10T05:42:19;12.60;1.00
28614;DHT22;15806;53.548;9.964;2023-05-10T05:44:00;12.60;1.00
28614;DHT22;15806;53.548;9.964;2023-05-10T05:45:40;12.70;1.00
28614;DHT22;15806;53.548;9.964;2023-05-10T05:47:21;12.80;1.00
28614;DHT22;15806;53.548;9.964;2023-05-10T05:49:02;12.80;1.00
28614;DHT22;15806;53.548;9.964;2023-05-10T05:50:42;12.70;1.00
28614;DHT22;15806;53.548;9.964;2023-05-10T05:52:23;12.70;1.00
28614;DHT22;15806;53.548;9.964;2023-05-10T05:54:03;12.80;1.00
28614;DHT22;15806;53.548;9.964;2023-05-10T05:55:54;12.80;1.00
28614;DHT22;15806;53.548;9.964;2023-05-10T05:57:35;12.90;1.00
28614;DHT22;15806;53.548;9.964;2023-05-10T05:59:15;12.90;1.00
28614;DHT22;15806;53.548;9.964;2023-05-10T06:00:56;13.00;1.00
28614;DHT22;15806;53.548;9.964;2023-05-10T06:02:36;13.00;1.00
28614;DHT22;15806;53.548;9.964;2023-05-10T06:04:17;13.00;1.00
28614;DHT22;15806;53.548;9.964;2023-05-10T06:05:58;13.00;1.00
28614;DHT22;15806;53.548;9.964;2023-05-10T06:07:38;13.00;1.00
28614;DHT22;15806;53.548;9.964;2023-05-10T06:09:19;13.00;1.00
28614;DHT22;15806;53.548;9.964;2023-05-10T06:11:00;13.00;1.00
28614;DHT22;15806;53.548;9.964;2023-05-10T06:12:40;13.10;1.00
28614;DHT22;15806;53.548;9.964;2023-05-10T06:14:21;13.30;1.00
28614;DHT22;15806;53.548;9.964;2023-05-10T06:16:02;13.30;1.00
28614;DHT22;15806;53.548;9.964;2023-05-10T06:17:43;13.30;1.00
28614;DHT22;15806;53.548;9.964;2023-05-10T06:19:23;13.30;1.00
28614;DHT22;15806;53.548;9.964;2023-05-10T06:21:04;13.30;1.00
28614;DHT22;15806;53.548;9.964;2023-05-10T06:22:44;13.40;1.00
28614;DHT22;15806;53.548;9.964;2023-05-10T06:24:25;13.40;1.00
28614;DHT22;15806;53.548;9.964;2023-05-10T06:26:06;13.40;1.00
28614;DHT22;15806;53.548;9.964;2023-05-10T06:27:46;13.40;1.00
28614;DHT22;15806;53.548;9.964;2023-05-10T06:29:27;13.40;1.00
28614;DHT22;15806;53.548;9.964;2023-05-10T06:31:07;13.40;1.00
28614;DHT22;15806;53.548;9.964;2023-05-10T06:32:48;13.40;1.00
28614;DHT22;15806;53.548;9.964;2023-05-10T06:34:28;13.50;1.00
28614;DHT22;15806;53.548;9.964;2023-05-10T06:36:09;13.50;1.00
28614;DHT22;15806;53.548;9.964;2023-05-10T06:37:49;13.50;1.00
28614;DHT22;15806;53.548;9.964;2023-05-10T06:39:30;13.60;1.00
28614;DHT22;15806;53.548;9.964;2023-05-10T06:41:10;13.50;1.00
28614;DHT22;15806;53.548;9.964;2023-05-10T06:42:51;13.40;1.00
28614;DHT22;15806;53.548;9.964;2023-05-10T06:44:32;13.50;1.00
28614;DHT22;15806;53.548;9.964;2023-05-10T06:46:12;13.60;1.00
28614;DHT22;15806;53.548;9.964;2023-05-10T06:47:53;13.60;1.00
28614;DHT22;15806;53.548;9.964;2023-05-10T06:49:33;13.60;1.00
28614;DHT22;15806;53.548;9.964;2023-05-10T06:51:14;13.70;1.00
28614;DHT22;15806;53.548;9.964;2023-05-10T06:52:55;13.90;1.00
28614;DHT22;15806;53.548;9.964;2023-05-10T06:54:35;13.90;1.00
28614;DHT22;15806;53.548;9.964;2023-05-10T06:56:16;13.90;1.00
28614;DHT22;15806;53.548;9.964;2023-05-10T06:57:56;14.00;1.00
28614;DHT22;15806;53.548;9.964;2023-05-10T06:59:37;14.10;1.00
28614;DHT22;15806;53.548;9.964;2023-05-10T07:01:17;14.20;1.00
28614;DHT22;15806;53.548;9.964;2023-05-10T07:02:58;14.10;1.00
28614;DHT22;15806;53.548;9.964;2023-05-10T07:04:38;14.20;1.00
28614;DHT22;15806;53.548;9.964;2023-05-10T07:06:19;14.30;1.00
28614;DHT22;15806;53.548;9.964;2023-05-10T07:07:59;14.40;1.00
28614;DHT22;15806;53.548;9.964;2023-05-10T07:09:40;14.60;1.00
28614;DHT22;15806;53.548;9.964;2023-05-10T07:11:20;15.00;1.00
28614;DHT22;15806;53.548;9.964;2023-05-10T07:13:01;15.50;1.00
28614;DHT22;15806;53.548;9.964;2023-05-10T07:14:42;15.50;1.00
28614;DHT22;15806;53.548;9.964;2023-05-10T07:16:23;16.00;99.90
28614;DHT22;15806;53.548;9.964;2023-05-10T07:18:03;15.90;99.90
28614;DHT22;15806;53.548;9.964;2023-05-10T07:19:44;15.60;99.90
28614;DHT22;15806;53.548;9.964;2023-05-10T07:21:24;15.50;99.90
28614;DHT22;15806;53.548;9.964;2023-05-10T07:23:05;15.30;99.90
28614;DHT22;15806;53.548;9.964;2023-05-10T07:24:45;14.90;99.90
28614;DHT22;15806;53.548;9.964;2023-05-10T07:26:26;14.90;1.00
28614;DHT22;15806;53.548;9.964;2023-05-10T07:28:06;14.80;1.00
28614;DHT22;15806;53.548;9.964;2023-05-10T07:29:47;14.90;1.00
28614;DHT22;15806;53.548;9.964;2023-05-10T07:31:28;15.00;1.00
28614;DHT22;15806;53.548;9.964;2023-05-10T07:33:09;15.10;1.00
28614;DHT22;15806;53.548;9.964;2023-05-10T07:34:50;15.20;1.00
28614;DHT22;15806;53.548;9.964;2023-05-10T07:36:30;15.20;99.90
28614;DHT22;15806;53.548;9.964;2023-05-10T07:38:11;15.30;99.90
28614;DHT22;15806;53.548;9.964;2023-05-10T07:39:51;15.40;99.90
28614;DHT22;15806;53.548;9.964;2023-05-10T07:41:32;15.40;99.90
28614;DHT22;15806;53.548;9.964;2023-05-10T07:43:12;15.20;99.90
28614;DHT22;15806;53.548;9.964;2023-05-10T07:44:53;15.30;99.90
28614;DHT22;15806;53.548;9.964;2023-05-10T07:46:33;15.30;99.90
28614;DHT22;15806;53.548;9.964;2023-05-10T07:48:14;15.00;99.90
28614;DHT22;15806;53.548;9.964;2023-05-10T07:49:54;14.90;99.90
28614;DHT22;15806;53.548;9.964;2023-05-10T07:51:35;15.00;99.90
28614;DHT22;15806;53.548;9.964;2023-05-10T07:53:15;15.00;99.90
28614;DHT22;15806;53.548;9.964;2023-05-10T07:54:56;15.00;99.90
28614;DHT22;15806;53.548;9.964;2023-05-10T07:56:36;15.20;99.90
28614;DHT22;15806;53.548;9.964;2023-05-10T07:58:17;15.10;99.90
28614;DHT22;15806;53.548;9.964;2023-05-10T07:59:57;15.20;99.90
28614;DHT22;15806;53.548;9.964;2023-05-10T08:01:38;15.30;99.90
28614;DHT22;15806;53.548;9.964;2023-05-10T08:03:18;15.40;99.90
28614;DHT22;15806;53.548;9.964;2023-05-10T08:04:59;15.40;99.90
28614;DHT22;15806;53.548;9.964;2023-05-10T08:06:40;15.30;99.90
28614;DHT22;15806;53.548;9.964;2023-05-10T08:08:20;15.40;99.90
28614;DHT22;15806;53.548;9.964;2023-05-10T08:10:02;15.50;99.90
28614;DHT22;15806;53.548;9.964;2023-05-10T08:11:42;15.50;99.90
28614;DHT22;15806;53.548;9.964;2023-05-10T08:13:23;15.50;99.90
28614;DHT22;15806;53.548;9.964;2023-05-10T08:15:04;15.40;99.90
28614;DHT22;15806;53.548;9.964;2023-05-10T08:16:44;15.40;99.90
28614;DHT22;15806;53.548;9.964;2023-05-10T08:18:25;15.40;99.90
28614;DHT22;15806;53.548;9.964;2023-05-10T08:20:06;15.40;99.90
28614;DHT22;15806;53.548;9.964;2023-05-10T08:21:47;15.60;99.90
28614;DHT22;15806;53.548;9.964;2023-05-10T08:23:27;15.70;99.90
28614;DHT22;15806;53.548;9.964;2023-05-10T08:25:08;15.80;99.90
28614;DHT22;15806;53.548;9.964;2023-05-10T08:26:48;15.90;99.90
28614;DHT22;15806;53.548;9.964;2023-05-10T08:28:29;15.90;99.90
28614;DHT22;15806;53.548;9.964;2023-05-10T08:30:10;15.90;99.90
28614;DHT22;15806;53.548;9.964;2023-05-10T08:31:50;15.90;99.90
28614;DHT22;15806;53.548;9.964;2023-05-10T08:33:31;16.00;99.90
28614;DHT22;15806;53.548;9.964;2023-05-10T08:35:11;16.10;99.90
28614;DHT22;15806;53.548;9.964;2023-05-10T08:36:52;16.10;99.90
28614;DHT22;15806;53.548;9.964;2023-05-10T08:38:33;16.10;99.90
28614;DHT22;15806;53.548;9.964;2023-05-10T08:40:14;16.20;99.90
28614;DHT22;15806;53.548;9.964;2023-05-10T08:41:58;16.10;99.90
28614;DHT22;15806;53.548;9.964;2023-05-10T08:43:42;16.20;99.90
28614;DHT22;15806;53.548;9.964;2023-05-10T08:45:24;16.20;99.90
28614;DHT22;15806;53.548;9.964;2023-05-10T08:47:08;16.30;99.90
28614;DHT22;15806;53.548;9.964;2023-05-10T08:48:51;16.40;99.90
28614;DHT22;15806;53.548;9.964;2023-05-10T08:50:32;16.50;99.90
28614;DHT22;15806;53.548;9.964;2023-05-10T08:52:15;16.50;99.90
28614;DHT22;15806;53.548;9.964;2023-05-10T08:53:56;16.70;99.90
28614;DHT22;15806;53.548;9.964;2023-05-10T08:55:38;16.80;99.90
28614;DHT22;15806;53.548;9.964;2023-05-10T08:57:19;16.70;99.90
28614;DHT22;15806;53.548;9.964;2023-05-10T08:59:00;16.20;99.90
28614;DHT22;15806;53.548;9.964;2023-05-10T09:00:40;15.90;99.90
28614;DHT22;15806;53.548;9.964;2023-05-10T09:02:23;15.70;99.90
28614;DHT22;15806;53.548;9.964;2023-05-10T09:04:13;15.60;99.90
28614;DHT22;15806;53.548;9.964;2023-05-10T09:05:54;15.30;1.00
28614;DHT22;15806;53.548;9.964;2023-05-10T09:07:34;15.30;1.00
28614;DHT22;15806;53.548;9.964;2023-05-10T09:09:16;15.30;1.00
28614;DHT22;15806;53.548;9.964;2023-05-10T09:10:57;15.50;1.00
28614;DHT22;15806;53.548;9.964;2023-05-10T09:12:38;15.40;1.00
28614;DHT22;15806;53.548;9.964;2023-05-10T09:14:19;15.20;1.00
28614;DHT22;15806;53.548;9.964;2023-05-10T09:16:00;15.30;1.00
28614;DHT22;15806;53.548;9.964;2023-05-10T09:17:41;15.30;1.00
28614;DHT22;15806;53.548;9.964;2023-05-10T09:19:22;15.20;1.00
28614;DHT22;15806;53.548;9.964;2023-05-10T09:21:03;15.20;1.00
28614;DHT22;15806;53.548;9.964;2023-05-10T09:22:44;15.10;1.00
28614;DHT22;15806;53.548;9.964;2023-05-10T09:24:30;15.00;1.00
28614;DHT22;15806;53.548;9.964;2023-05-10T09:26:10;15.00;1.00
28614;DHT22;15806;53.548;9.964;2023-05-10T09:27:52;15.10;1.00
28614;DHT22;15806;53.548;9.964;2023-05-10T09:29:39;15.20;1.00
28614;DHT22;15806;53.548;9.964;2023-05-10T09:31:20;15.20;1.00
28614;DHT22;15806;53.548;9.964;2023-05-10T09:33:01;15.00;1.00
28614;DHT22;15806;53.548;9.964;2023-05-10T09:34:42;14.90;1.00
28614;DHT22;15806;53.548;9.964;2023-05-10T09:36:22;14.90;49.20
28614;DHT22;15806;53.548;9.964;2023-05-10T09:38:04;14.60;99.90
28614;DHT22;15806;53.548;9.964;2023-05-10T09:39:45;14.30;99.90
28614;DHT22;15806;53.548;9.964;2023-05-10T09:41:25;14.30;99.90
28614;DHT22;15806;53.548;9.964;2023-05-10T09:43:07;14.30;1.00
28614;DHT22;15806;53.548;9.964;2023-05-10T09:44:47;14.30;1.00
28614;DHT22;15806;53.548;9.964;2023-05-10T09:46:28;14.30;99.90
28614;DHT22;15806;53.548;9.964;2023-05-10T09:48:08;14.10;99.90
28614;DHT22;15806;53.548;9.964;2023-05-10T09:49:50;13.80;99.90
28614;DHT22;15806;53.548;9.964;2023-05-10T09:51:30;13.70;1.00
28614;DHT22;15806;53.548;9.964;2023-05-10T09:53:14;13.60;30.80
28614;DHT22;15806;53.548;9.964;2023-05-10T09:54:55;13.60;99.90
28614;DHT22;15806;53.548;9.964;2023-05-10T09:56:36;13.50;99.90
28614;DHT22;15806;53.548;9.964;2023-05-10T09:58:17;13.40;99.90
28614;DHT22;15806;53.548;9.964;2023-05-10T10:00:00;13.30;1.00
28614;DHT22;15806;53.548;9.964;2023-05-10T10:01:41;13.30;99.90
28614;DHT22;15806;53.548;9.964;2023-05-10T10:03:21;13.30;1.00
28614;DHT22;15806;53.548;9.964;2023-05-10T10:05:02;13.30;99.90
28614;DHT22;15806;53.548;9.964;2023-05-10T10:07:02;13.30;1.00
28614;DHT22;15806;53.548;9.964;2023-05-10T10:08:43;13.30;99.90
28614;DHT22;15806;53.548;9.964;2023-05-10T10:10:25;13.30;99.90
28614;DHT22;15806;53.548;9.964;2023-05-10T10:12:05;13.30;99.90
28614;DHT22;15806;53.548;9.964;2023-05-10T10:13:46;13.30;1.00
28614;DHT22;15806;53.548;9.964;2023-05-10T10:15:27;13.30;99.90
28614;DHT22;15806;53.548;9.964;2023-05-10T10:17:09;13.10;99.90
28614;DHT22;15806;53.548;9.964;2023-05-10T10:18:49;13.00;99.90
28614;DHT22;15806;53.548;9.964;2023-05-10T10:20:30;13.10;1.00
28614;DHT22;15806;53.548;9.964;2023-05-10T10:22:10;13.00;98.40
28614;DHT22;15806;53.548;9.964;2023-05-10T10:23:51;13.00;99.90
28614;DHT22;15806;53.548;9.964;2023-05-10T10:25:32;12.90;1.00
28614;DHT22;15806;53.548;9.964;2023-05-10T10:27:28;13.00;1.00
28614;DHT22;15806;53.548;9.964;2023-05-10T10:29:18;13.00;98.00
28614;DHT22;15806;53.548;9.964;2023-05-10T10:31:11;13.00;99.90
28614;DHT22;15806;53.548;9.964;2023-05-10T10:34:44;13.30;99.90
28614;DHT22;15806;53.548;9.964;2023-05-10T10:36:24;13.50;99.90
28614;DHT22;15806;53.548;9.964;2023-05-10T10:38:08;13.50;99.90
28614;DHT22;15806;53.548;9.964;2023-05-10T10:39:49;13.40;99.90
28614;DHT22;15806;53.548;9.964;2023-05-10T10:41:52;13.40;99.90
28614;DHT22;15806;53.548;9.964;2023-05-10T10:43:33;13.50;99.90
28614;DHT22;15806;53.548;9.964;2023-05-10T10:45:14;13.30;99.90
28614;DHT22;15806;53.548;9.964;2023-05-10T10:49:08;13.50;99.90
28614;DHT22;15806;53.548;9.964;2023-05-10T10:50:56;13.50;99.90
28614;DHT22;15806;53.548;9.964;2023-05-10T10:52:39;13.90;99.90
28614;DHT22;15806;53.548;9.964;2023-05-10T10:54:32;13.80;99.90
28614;DHT22;15806;53.548;9.964;2023-05-10T10:56:13;13.70;99.90
28614;DHT22;15806;53.548;9.964;2023-05-10T10:57:57;13.90;99.90
28614;DHT22;15806;53.548;9.964;2023-05-10T10:59:42;13.70;99.90
28614;DHT22;15806;53.548;9.964;2023-05-10T11:01:22;13.70;99.90
28614;DHT22;15806;53.548;9.964;2023-05-10T11:03:10;13.70;99.90
28614;DHT22;15806;53.548;9.964;2023-05-10T11:04:52;13.60;99.90
28614;DHT22;15806;53.548;9.964;2023-05-10T11:06:34;13.70;99.90
28614;DHT22;15806;53.548;9.964;2023-05-10T11:08:31;13.70;99.90
28614;DHT22;15806;53.548;9.964;2023-05-10T11:10:12;13.70;99.90
28614;DHT22;15806;53.548;9.964;2023-05-10T11:11:54;13.60;99.90
28614;DHT22;15806;53.548;9.964;2023-05-10T11:13:46;13.80;99.90
28614;DHT22;15806;53.548;9.964;2023-05-10T11:16:21;14.00;99.90
28614;DHT22;15806;53.548;9.964;2023-05-10T11:18:24;14.00;99.90
28614;DHT22;15806;53.548;9.964;2023-05-10T11:20:09;13.80;99.90